Middleton Island, Alaska
Current Conditions -  °F | °C
As of 9:36 PM on Friday 19 Dec 2014 (Local Time) from PAMD Reporting Station
Overcast Overcast  
Wind Chill:   Ceiling: 2500
Heat Index:   Visibility: 7mi
Dew Point:   Wind: 32mph
Humidity: 81%   Direction: 90°E
Pressure: 28.95"   Gusts: 39mph
Location:  59.43°N, 146.33°W
Report Text: PAMD 200636Z 09028G34KT 7SM BKN025 OVC030 06/03 A2895 RMK AO1 P0002
Loading
Personal Weather Stations






























Interactive Weather Map New forecast layout! Learn more

10-Day Weather Forecast

Advertisements
Track Severe Weather on mobile